createdAt,value
2018-11-27T00:00:27.024Z,27.33
2018-11-27T00:02:59.139Z,27.07
2018-11-27T00:05:27.542Z,27.20
2018-11-27T00:07:55.736Z,27.70
2018-11-27T00:10:23.899Z,30.77
2018-11-27T00:12:52.147Z,31.20
2018-11-27T00:15:20.375Z,30.23
2018-11-27T00:17:48.535Z,29.90
2018-11-27T00:20:16.715Z,29.40
2018-11-27T00:22:44.872Z,29.60
2018-11-27T00:25:14.135Z,29.23
2018-11-27T00:27:42.316Z,29.60
2018-11-27T00:30:12.345Z,28.63
2018-11-27T00:32:40.513Z,28.07
2018-11-27T00:35:10.007Z,26.27
2018-11-27T00:37:38.188Z,27.47
2018-11-27T00:40:08.911Z,28.70
2018-11-27T00:42:37.079Z,28.20
2018-11-27T00:45:07.915Z,28.80
2018-11-27T00:47:36.091Z,26.20
2018-11-27T00:50:07.045Z,27.60
2018-11-27T00:52:35.202Z,24.47
2018-11-27T00:55:03.389Z,26.00
2018-11-27T00:57:31.548Z,27.10
2018-11-27T00:59:59.708Z,25.30
2018-11-27T01:02:27.873Z,25.60
2018-11-27T01:04:56.027Z,26.20
2018-11-27T01:07:24.188Z,23.00
2018-11-27T01:09:52.363Z,23.47
2018-11-27T01:12:20.531Z,24.90
2018-11-27T01:14:48.715Z,25.17
2018-11-27T01:17:16.874Z,24.10
2018-11-27T01:19:45.051Z,22.97
2018-11-27T01:22:13.228Z,24.30
2018-11-27T01:24:41.448Z,25.10
2018-11-27T01:27:09.607Z,24.00
2018-11-27T01:29:37.766Z,23.90
2018-11-27T01:32:06.111Z,25.00
2018-11-27T01:34:34.261Z,27.67
2018-11-27T01:37:02.447Z,24.37
2018-11-27T01:39:30.591Z,25.70
2018-11-27T01:41:58.752Z,24.77
2018-11-27T01:44:26.908Z,24.33
2018-11-27T01:46:55.067Z,25.20
2018-11-27T01:49:23.223Z,24.53
2018-11-27T01:51:51.383Z,22.97
2018-11-27T01:54:19.544Z,24.27
2018-11-27T01:56:47.705Z,25.10
2018-11-27T01:59:15.876Z,24.13
2018-11-27T02:01:44.051Z,23.93
2018-11-27T02:04:12.211Z,24.57
2018-11-27T02:06:40.374Z,24.73
2018-11-27T02:09:09.004Z,24.47
2018-11-27T02:11:37.191Z,24.40
2018-11-27T02:14:05.354Z,23.23
2018-11-27T02:16:33.507Z,24.20
2018-11-27T02:19:01.656Z,23.00
2018-11-27T02:21:29.811Z,24.00
2018-11-27T02:23:57.963Z,23.30
2018-11-27T02:26:26.112Z,23.17
2018-11-27T02:28:54.246Z,23.50
2018-11-27T02:31:22.384Z,23.80
2018-11-27T02:33:50.535Z,21.80
2018-11-27T02:36:18.684Z,24.23
2018-11-27T02:38:46.831Z,26.13
2018-11-27T02:41:15.003Z,23.57
2018-11-27T02:43:43.152Z,25.07
2018-11-27T02:46:11.305Z,25.17
2018-11-27T02:48:39.463Z,26.87
2018-11-27T02:51:07.615Z,24.27
2018-11-27T02:53:35.771Z,25.30
2018-11-27T02:56:03.912Z,24.57
2018-11-27T02:58:32.081Z,22.73
2018-11-27T03:01:00.231Z,24.10
2018-11-27T03:03:28.380Z,23.30
2018-11-27T03:05:56.532Z,23.03
2018-11-27T03:08:24.773Z,24.80
2018-11-27T03:10:53.048Z,25.87
2018-11-27T03:13:21.199Z,24.20
2018-11-27T03:15:49.343Z,23.93
2018-11-27T03:18:17.500Z,24.40
2018-11-27T03:20:45.650Z,25.50
2018-11-27T03:23:13.800Z,26.70
2018-11-27T03:25:41.940Z,25.90
2018-11-27T03:28:10.105Z,22.50
2018-11-27T03:30:38.260Z,25.37
2018-11-27T03:33:06.417Z,22.60
2018-11-27T03:35:34.600Z,24.00
2018-11-27T03:38:02.743Z,24.00
2018-11-27T03:40:30.883Z,23.80
2018-11-27T03:42:59.044Z,24.37
2018-11-27T03:45:27.207Z,22.13
2018-11-27T03:47:55.348Z,25.57
2018-11-27T03:50:24.591Z,23.80
2018-11-27T03:52:52.755Z,24.10
2018-11-27T03:55:20.909Z,25.00
2018-11-27T03:57:49.229Z,22.73
2018-11-27T04:00:22.960Z,25.23
2018-11-27T04:03:09.627Z,26.10
2018-11-27T04:05:38.100Z,23.47
2018-11-27T04:13:58.889Z,22.73
2018-11-27T04:16:27.031Z,23.53
2018-11-27T04:18:55.185Z,24.93
2018-11-27T04:21:23.348Z,25.20
2018-11-27T04:23:51.499Z,23.90
2018-11-27T04:26:19.659Z,25.20
2018-11-27T04:28:47.819Z,23.30
2018-11-27T04:31:15.991Z,24.40
2018-11-27T04:33:44.168Z,25.03
2018-11-27T04:36:12.318Z,23.83
2018-11-27T04:38:40.471Z,24.43
2018-11-27T04:41:08.631Z,24.30
2018-11-27T04:43:36.795Z,25.00
2018-11-27T04:46:04.958Z,25.43
2018-11-27T04:48:33.139Z,23.23
2018-11-27T04:51:01.290Z,24.70
2018-11-27T04:53:29.452Z,23.67
2018-11-27T04:55:57.583Z,25.07
2018-11-27T04:58:25.735Z,25.03
2018-11-27T05:00:53.880Z,23.70
2018-11-27T05:03:22.054Z,22.73
2018-11-27T05:05:50.223Z,20.60
2018-11-27T05:08:18.393Z,22.90
2018-11-27T05:10:46.554Z,22.93
2018-11-27T05:13:14.743Z,24.87
2018-11-27T05:15:42.902Z,25.30
2018-11-27T05:18:11.054Z,21.40
2018-11-27T05:20:39.219Z,27.30
2018-11-27T05:23:07.358Z,24.60
2018-11-27T05:25:35.526Z,24.33
2018-11-27T05:28:03.683Z,23.70
2018-11-27T05:30:31.852Z,27.03
2018-11-27T05:33:00.007Z,26.70
2018-11-27T05:35:30.043Z,24.67
2018-11-27T05:38:00.563Z,23.07
2018-11-27T05:40:28.736Z,25.87
2018-11-27T05:43:01.338Z,24.47
2018-11-27T05:45:29.572Z,24.63
2018-11-27T05:47:57.715Z,25.77
2018-11-27T05:50:25.896Z,23.07
2018-11-27T05:52:54.051Z,23.90
2018-11-27T05:55:22.234Z,22.60
2018-11-27T05:57:51.793Z,22.40
2018-11-27T06:00:24.092Z,23.40
2018-11-27T06:02:53.924Z,24.53
2018-11-27T06:05:22.611Z,23.63
2018-11-27T06:07:50.755Z,25.73
2018-11-27T06:10:19.865Z,24.97
2018-11-27T06:12:48.033Z,24.40
2018-11-27T06:15:19.018Z,23.20
2018-11-27T06:17:48.327Z,24.00
2018-11-27T06:20:18.524Z,22.80
2018-11-27T06:22:46.725Z,23.57
2018-11-27T06:25:17.777Z,22.40
2018-11-27T06:27:47.276Z,22.73
2018-11-27T06:30:17.419Z,23.43
2018-11-27T06:32:45.622Z,24.57
2018-11-27T06:35:16.302Z,23.47
2018-11-27T06:37:44.450Z,23.33
2018-11-27T06:40:14.928Z,22.90
2018-11-27T06:42:43.092Z,25.87
2018-11-27T06:45:14.212Z,26.17
2018-11-27T06:47:42.466Z,24.70
2018-11-27T06:50:11.895Z,23.50
2018-11-27T06:52:40.050Z,22.63
2018-11-27T06:55:10.319Z,23.87
2018-11-27T06:57:38.463Z,22.40
2018-11-27T07:00:18.347Z,23.73
2018-11-27T07:02:46.502Z,23.80
2018-11-27T07:05:14.882Z,23.53
2018-11-27T07:07:43.163Z,24.70
2018-11-27T07:10:14.044Z,24.53
2018-11-27T07:12:42.195Z,21.37
2018-11-27T07:15:14.936Z,23.07
2018-11-27T07:17:43.091Z,23.63
2018-11-27T07:20:12.102Z,25.60
2018-11-27T07:22:40.263Z,23.97
2018-11-27T07:25:11.590Z,22.10
2018-11-27T07:27:40.161Z,23.40
2018-11-27T07:30:23.939Z,25.83
2018-11-27T07:32:52.155Z,23.47
2018-11-27T07:35:20.482Z,23.10
2018-11-27T07:37:48.674Z,22.00
2018-11-27T07:40:19.899Z,23.33
2018-11-27T07:42:48.916Z,25.17
2018-11-27T07:45:19.238Z,23.17
2018-11-27T07:47:47.420Z,23.30
2018-11-27T07:50:16.123Z,25.30
2018-11-27T07:52:44.323Z,27.63
2018-11-27T07:55:13.543Z,27.97
2018-11-27T07:57:41.775Z,26.47
2018-11-27T08:00:13.782Z,24.53
2018-11-27T08:02:42.690Z,26.50
2018-11-27T08:05:15.966Z,24.73
2018-11-27T08:07:46.446Z,26.23
2018-11-27T08:10:16.011Z,26.53
2018-11-27T08:12:44.346Z,25.63
2018-11-27T08:15:14.610Z,26.70
2018-11-27T08:17:42.889Z,24.80
2018-11-27T08:20:17.395Z,26.00
2018-11-27T08:22:45.570Z,23.70
2018-11-27T08:25:14.275Z,24.13
2018-11-27T08:27:42.460Z,25.33
2018-11-27T08:30:13.700Z,26.23
2018-11-27T08:32:41.947Z,22.17
2018-11-27T08:35:12.590Z,22.77
2018-11-27T08:37:41.023Z,25.37
2018-11-27T08:40:10.663Z,24.20
2018-11-27T08:42:38.820Z,24.20
2018-11-27T08:45:12.959Z,22.90
2018-11-27T08:47:41.163Z,24.33
2018-11-27T08:50:14.343Z,23.10
2018-11-27T08:52:46.707Z,24.80
2018-11-27T08:55:14.150Z,22.77
2018-11-27T08:57:44.211Z,23.37
2018-11-27T09:00:15.717Z,23.33
2018-11-27T09:02:43.888Z,21.60
2018-11-27T09:05:12.615Z,24.13
2018-11-27T09:07:40.879Z,25.63
2018-11-27T09:10:13.542Z,23.97
2018-11-27T09:12:41.807Z,24.87
2018-11-27T09:15:11.601Z,22.40
2018-11-27T09:17:39.904Z,23.30
2018-11-27T09:20:09.936Z,24.33
2018-11-27T09:22:38.275Z,24.30
2018-11-27T09:25:09.561Z,23.57
2018-11-27T09:27:37.751Z,23.80
2018-11-27T09:30:10.989Z,23.47
2018-11-27T09:32:39.256Z,22.77
2018-11-27T09:35:07.540Z,24.37
2018-11-27T09:37:35.716Z,24.63
2018-11-27T09:40:04.513Z,24.10
2018-11-27T09:42:32.714Z,23.90
2018-11-27T09:45:00.899Z,25.57
2018-11-27T09:47:29.075Z,23.97
2018-11-27T09:49:57.240Z,23.70
2018-11-27T09:52:25.422Z,24.57
2018-11-27T09:54:53.584Z,23.50
2018-11-27T09:57:21.777Z,22.70
2018-11-27T09:59:49.937Z,25.53
2018-11-27T10:02:18.111Z,25.77
2018-11-27T10:04:46.308Z,24.13
2018-11-27T10:07:14.478Z,24.67
2018-11-27T10:09:42.667Z,23.90
2018-11-27T10:12:12.184Z,25.67
2018-11-27T10:14:40.348Z,24.30
2018-11-27T10:17:09.340Z,23.73
2018-11-27T10:19:37.543Z,23.30
2018-11-27T10:22:05.722Z,23.70
2018-11-27T10:24:33.878Z,22.90
2018-11-27T10:27:02.060Z,24.90
2018-11-27T10:29:30.230Z,24.50
2018-11-27T10:31:58.879Z,25.10
2018-11-27T10:34:27.087Z,24.17
2018-11-27T10:36:55.243Z,22.07
2018-11-27T10:39:23.443Z,25.17
2018-11-27T10:41:51.612Z,23.80
2018-11-27T10:44:19.795Z,21.47
2018-11-27T10:46:47.963Z,24.23
2018-11-27T10:49:16.143Z,23.00
2018-11-27T10:51:44.340Z,22.97
2018-11-27T10:54:12.507Z,23.40
2018-11-27T10:56:40.680Z,24.60
2018-11-27T10:59:08.853Z,24.27
2018-11-27T11:01:42.406Z,23.60
2018-11-27T11:04:10.571Z,22.53
2018-11-27T11:06:38.736Z,23.73
2018-11-27T11:09:08.871Z,23.23
2018-11-27T11:11:37.031Z,23.87
2018-11-27T11:14:05.542Z,21.10
2018-11-27T11:16:33.703Z,25.77
2018-11-27T11:19:01.870Z,25.33
2018-11-27T11:21:30.031Z,23.53
2018-11-27T11:23:58.219Z,23.80
2018-11-27T11:26:26.399Z,24.20
2018-11-27T11:28:54.559Z,24.30
2018-11-27T11:31:22.733Z,23.07
2018-11-27T11:33:50.904Z,24.70
2018-11-27T11:36:19.060Z,23.47
2018-11-27T11:38:47.203Z,23.83
2018-11-27T11:41:15.368Z,23.03
2018-11-27T11:43:43.524Z,22.23
2018-11-27T11:46:11.685Z,26.00
2018-11-27T11:48:39.873Z,23.90
2018-11-27T11:51:08.051Z,22.77
2018-11-27T11:53:36.231Z,24.20
2018-11-27T11:56:04.446Z,25.10
2018-11-27T11:58:32.601Z,26.07
2018-11-27T12:01:00.751Z,23.77
2018-11-27T12:03:28.917Z,21.87
2018-11-27T12:05:57.074Z,22.50
2018-11-27T12:08:25.219Z,22.30
2018-11-27T12:10:53.370Z,21.30
2018-11-27T12:13:21.519Z,19.43
2018-11-27T12:15:49.675Z,19.73
2018-11-27T12:18:17.819Z,22.07
2018-11-27T12:20:45.966Z,22.43
2018-11-27T12:23:14.107Z,21.40
2018-11-27T12:25:42.258Z,23.30
2018-11-27T12:28:14.608Z,18.50
2018-11-27T12:30:38.887Z,19.13
2018-11-27T12:33:07.216Z,19.37
2018-11-27T12:35:35.516Z,19.57
2018-11-27T12:38:03.658Z,19.90
2018-11-27T12:40:31.816Z,19.80
2018-11-27T12:42:59.960Z,19.70
2018-11-27T12:45:29.836Z,21.23
2018-11-27T12:47:58.972Z,19.40
2018-11-27T12:50:51.616Z,19.57
2018-11-27T12:53:19.766Z,18.37
2018-11-27T12:55:49.096Z,19.47
2018-11-27T12:58:17.241Z,18.20
2018-11-27T13:00:45.395Z,19.10
2018-11-27T13:03:13.551Z,20.27
2018-11-27T13:05:43.972Z,19.07
2018-11-27T13:08:17.339Z,19.70
2018-11-27T13:10:45.499Z,18.70
2018-11-27T13:13:13.646Z,20.70
2018-11-27T13:15:42.459Z,20.17
2018-11-27T13:18:10.681Z,21.13
2018-11-27T13:20:39.438Z,20.37
2018-11-27T13:23:08.004Z,22.73
2018-11-27T13:25:37.119Z,22.77
2018-11-27T13:28:06.309Z,21.50
2018-11-27T13:31:00.100Z,19.90
2018-11-27T13:33:33.203Z,22.13
2018-11-27T13:36:01.348Z,21.80
2018-11-27T13:38:29.516Z,21.00
2018-11-27T13:40:57.687Z,23.47
2018-11-27T13:43:27.075Z,21.83
2018-11-27T13:45:56.294Z,21.63
2018-11-27T13:48:24.462Z,20.70
2018-11-27T13:50:52.638Z,22.87
2018-11-27T13:53:20.810Z,21.70
2018-11-27T13:55:50.036Z,20.67
2018-11-27T13:58:18.181Z,20.53
2018-11-27T14:00:46.404Z,22.37
2018-11-27T14:03:14.626Z,22.77
2018-11-27T14:05:42.784Z,21.90
2018-11-27T14:08:11.556Z,20.03
2018-11-27T14:10:40.015Z,23.20
2018-11-27T14:13:08.531Z,21.47
2018-11-27T14:15:37.013Z,21.73
2018-11-27T14:18:05.516Z,19.93
2018-11-27T14:20:33.704Z,21.23
2018-11-27T14:23:01.836Z,20.60
2018-11-27T14:25:29.992Z,20.70
2018-11-27T14:27:58.140Z,20.33
2018-11-27T14:30:26.320Z,20.33
2018-11-27T14:32:54.620Z,19.57
2018-11-27T14:35:23.528Z,20.37
2018-11-27T14:37:52.866Z,20.50
2018-11-27T14:40:23.399Z,21.40
2018-11-27T14:42:51.589Z,22.23
2018-11-27T14:45:21.153Z,20.87
2018-11-27T14:47:52.304Z,21.63
2018-11-27T14:50:20.470Z,21.60
2018-11-27T14:52:48.655Z,20.97
2018-11-27T14:55:19.204Z,20.30
2018-11-27T14:57:47.424Z,24.47
2018-11-27T15:00:23.115Z,31.93
2018-11-27T15:02:51.324Z,26.97
2018-11-27T15:05:23.952Z,28.63
2018-11-27T15:07:53.252Z,22.40
2018-11-27T15:10:21.435Z,23.27
2018-11-27T15:12:49.648Z,23.00
2018-11-27T15:15:17.914Z,21.40
2018-11-27T15:17:46.241Z,23.50
2018-11-27T15:20:20.525Z,22.83
2018-11-27T15:22:48.707Z,22.53
2018-11-27T15:25:16.887Z,22.07
2018-11-27T15:27:45.143Z,21.50
2018-11-27T15:30:19.371Z,21.80
2018-11-27T15:32:47.640Z,22.33
2018-11-27T15:35:15.884Z,26.63
2018-11-27T15:37:44.048Z,24.10
2018-11-27T15:40:14.461Z,27.03
2018-11-27T15:42:42.650Z,26.00
2018-11-27T15:45:16.104Z,25.17
2018-11-27T15:47:44.352Z,26.50
2018-11-27T15:50:21.169Z,26.33
2018-11-27T15:52:49.415Z,24.20
2018-11-27T15:55:21.922Z,24.87
2018-11-27T15:57:51.541Z,30.00
2018-11-27T16:00:20.245Z,29.47
2018-11-27T16:02:48.656Z,29.20
2018-11-27T16:05:17.885Z,25.87
2018-11-27T16:07:46.114Z,25.67
2018-11-27T16:10:15.272Z,23.17
2018-11-27T16:12:43.493Z,24.77
2018-11-27T16:15:12.580Z,23.10
2018-11-27T16:17:40.884Z,22.20
2018-11-27T16:20:11.474Z,21.80
2018-11-27T16:22:40.219Z,24.67
2018-11-27T16:25:10.231Z,24.10
2018-11-27T16:27:38.417Z,25.87
2018-11-27T16:30:12.392Z,22.37
2018-11-27T16:32:40.704Z,24.27
2018-11-27T16:35:09.643Z,22.57
2018-11-27T16:37:37.822Z,24.17
2018-11-27T16:40:12.500Z,25.87
2018-11-27T16:42:40.951Z,26.97
2018-11-27T16:45:13.441Z,23.60
2018-11-27T16:47:41.779Z,23.87
2018-11-27T16:50:11.307Z,23.17
2018-11-27T16:52:39.488Z,22.97
2018-11-27T16:55:09.289Z,22.60
2018-11-27T16:57:37.487Z,22.53
2018-11-27T17:00:29.252Z,23.07
2018-11-27T17:02:59.415Z,23.30
2018-11-27T17:05:29.123Z,23.83
2018-11-27T17:07:57.286Z,22.37
2018-11-27T17:10:25.456Z,28.83
2018-11-27T17:12:55.013Z,26.30
2018-11-27T17:15:24.396Z,26.73
2018-11-27T17:17:52.604Z,30.60
2018-11-27T17:20:24.871Z,27.60
2018-11-27T17:22:53.719Z,25.73
2018-11-27T17:25:21.904Z,24.70
2018-11-27T17:27:50.340Z,25.30
2018-11-27T17:31:28.827Z,23.80
2018-11-27T17:34:02.501Z,23.93
2018-11-27T17:36:30.848Z,22.10
2018-11-27T17:38:59.420Z,25.20
2018-11-27T17:41:27.640Z,28.80
2018-11-27T17:43:56.226Z,27.70
2018-11-27T17:46:24.499Z,24.73
2018-11-27T17:48:52.767Z,26.80
2018-11-27T17:51:21.102Z,23.60
2018-11-27T17:53:49.278Z,26.10
2018-11-27T17:56:17.439Z,25.83
2018-11-27T17:58:45.630Z,24.53
2018-11-27T18:01:13.795Z,26.40
2018-11-27T18:03:42.027Z,28.00
2018-11-27T18:06:10.237Z,30.23
2018-11-27T18:08:38.418Z,30.23
2018-11-27T18:11:06.632Z,29.10
2018-11-27T18:13:35.387Z,30.73
2018-11-27T18:16:03.591Z,28.30
2018-11-27T18:18:31.795Z,30.13
2018-11-27T18:21:00.040Z,27.00
2018-11-27T18:23:28.209Z,26.30
2018-11-27T18:25:56.383Z,26.10
2018-11-27T18:28:24.581Z,26.13
2018-11-27T18:30:52.774Z,26.97
2018-11-27T18:33:20.976Z,28.40
2018-11-27T18:35:49.202Z,27.57
2018-11-27T18:38:17.458Z,27.70
2018-11-27T18:40:45.672Z,26.87
2018-11-27T18:43:13.882Z,26.17
2018-11-27T18:45:42.074Z,26.10
2018-11-27T18:48:10.291Z,24.80
2018-11-27T18:50:38.702Z,26.83
2018-11-27T18:53:06.937Z,26.97
2018-11-27T18:55:35.181Z,32.00
2018-11-27T18:58:03.415Z,30.40
2018-11-27T19:00:32.795Z,29.07
2018-11-27T19:03:01.017Z,27.17
2018-11-27T19:05:29.228Z,27.07
2018-11-27T19:07:57.474Z,27.63
2018-11-27T19:10:26.821Z,28.30
2018-11-27T19:12:55.021Z,24.10
2018-11-27T19:15:24.950Z,25.00
2018-11-27T19:17:54.749Z,24.97
2018-11-27T19:20:22.941Z,24.63
2018-11-27T19:22:51.137Z,26.10
2018-11-27T19:25:19.339Z,25.27
2018-11-27T19:27:47.539Z,26.93
2018-11-27T19:30:21.067Z,27.50
2018-11-27T19:32:49.251Z,30.07
2018-11-27T19:35:18.756Z,27.87
2018-11-27T19:37:47.843Z,28.10
2018-11-27T19:40:17.169Z,25.67
2018-11-27T19:42:45.356Z,25.93
2018-11-27T19:45:16.795Z,28.10
2018-11-27T19:47:45.001Z,25.60
2018-11-27T19:50:13.635Z,25.40
2018-11-27T19:52:42.810Z,25.80
2018-11-27T19:55:13.348Z,25.30
2018-11-27T19:57:41.572Z,27.03
2018-11-27T20:00:12.387Z,24.90
2018-11-27T20:02:40.579Z,23.60
2018-11-27T20:05:09.870Z,24.33
2018-11-27T20:07:38.035Z,22.07
2018-11-27T20:10:08.051Z,26.90
2018-11-27T20:12:36.255Z,25.10
2018-11-27T20:15:05.787Z,24.53
2018-11-27T20:17:34.024Z,26.20
2018-11-27T20:20:02.232Z,24.57
2018-11-27T20:22:30.405Z,26.63
2018-11-27T20:24:58.591Z,26.43
2018-11-27T20:27:26.798Z,27.03
2018-11-27T20:29:54.988Z,25.33
2018-11-27T20:32:23.154Z,24.37
2018-11-27T20:34:51.349Z,25.90
2018-11-27T20:37:19.522Z,24.93
2018-11-27T20:39:47.742Z,24.47
2018-11-27T20:42:15.906Z,25.87
2018-11-27T20:44:44.065Z,27.27
2018-11-27T20:47:12.234Z,25.53
2018-11-27T20:49:40.412Z,25.80
2018-11-27T20:52:08.571Z,25.30
2018-11-27T20:54:36.747Z,24.63
2018-11-27T20:57:04.970Z,24.33
2018-11-27T20:59:33.170Z,23.17
2018-11-27T21:02:01.339Z,25.53
2018-11-27T21:04:29.497Z,24.60
2018-11-27T21:06:57.661Z,24.70
2018-11-27T21:09:25.786Z,24.60
2018-11-27T21:11:53.984Z,23.80
2018-11-27T21:14:22.153Z,23.83
2018-11-27T21:16:50.294Z,24.60
2018-11-27T21:19:18.447Z,25.63
2018-11-27T21:21:46.590Z,26.20
2018-11-27T21:24:14.754Z,25.17
2018-11-27T21:26:42.908Z,27.63
2018-11-27T21:29:11.057Z,26.10
2018-11-27T21:31:39.217Z,28.10
2018-11-27T21:34:07.446Z,27.30
2018-11-27T21:36:35.651Z,26.60
2018-11-27T21:39:03.980Z,21.87
2018-11-27T21:41:32.125Z,22.70
2018-11-27T21:44:00.287Z,22.50
2018-11-27T21:46:29.280Z,23.37
2018-11-27T21:48:57.668Z,23.50
2018-11-27T21:51:25.852Z,24.47
2018-11-27T21:53:53.992Z,24.90
2018-11-27T21:56:22.150Z,23.77
2018-11-27T21:58:50.315Z,24.57
2018-11-27T22:01:18.539Z,28.93
2018-11-27T22:03:46.999Z,30.17
2018-11-27T22:06:15.298Z,29.00
2018-11-27T22:08:48.187Z,30.03
2018-11-27T22:11:16.764Z,28.10
2018-11-27T22:13:45.022Z,28.27
2018-11-27T22:16:16.517Z,26.20
2018-11-27T22:18:44.836Z,27.80
2018-11-27T22:21:13.015Z,25.83
2018-11-27T22:23:41.219Z,23.47
2018-11-27T22:26:09.419Z,24.70
2018-11-27T22:28:37.562Z,24.57
2018-11-27T22:31:06.211Z,23.47
2018-11-27T22:33:34.397Z,24.40
2018-11-27T22:36:02.599Z,24.53
2018-11-27T22:38:30.867Z,24.07
2018-11-27T22:40:59.016Z,24.13
2018-11-27T22:43:27.166Z,25.63
2018-11-27T22:45:55.367Z,23.97
2018-11-27T22:48:23.564Z,23.57
2018-11-27T22:50:51.784Z,24.40
2018-11-27T22:53:19.987Z,23.90
2018-11-27T22:55:48.204Z,25.87
2018-11-27T22:58:16.443Z,23.57
2018-11-27T23:00:49.596Z,26.53
2018-11-27T23:03:18.575Z,23.30
2018-11-27T23:05:46.788Z,25.43
2018-11-27T23:08:14.973Z,25.03
2018-11-27T23:10:44.422Z,24.80
2018-11-27T23:13:12.659Z,25.37
2018-11-27T23:15:40.834Z,23.90
2018-11-27T23:18:09.030Z,23.93
2018-11-27T23:20:37.236Z,23.93
2018-11-27T23:23:05.535Z,24.63
2018-11-27T23:25:33.688Z,24.97
2018-11-27T23:28:01.833Z,24.00
2018-11-27T23:30:29.979Z,22.90
2018-11-27T23:32:58.211Z,23.27
2018-11-27T23:35:26.411Z,24.87
2018-11-27T23:37:54.626Z,24.30
2018-11-27T23:40:22.826Z,24.30
2018-11-27T23:42:51.243Z,23.70
2018-11-27T23:45:21.113Z,25.10
2018-11-27T23:47:49.362Z,24.87
2018-11-27T23:50:18.523Z,21.70
2018-11-27T23:52:46.950Z,21.60
2018-11-27T23:55:15.793Z,22.17
2018-11-27T23:57:44.363Z,21.73
